Terminal Aerodrome Forecast
Issued by NWS Cleveland, OH

Home | Current Version | Previous Version | Graphics & Text | Print | Product List | Glossary Off
Versions: 1 2 3 4 5 6 7 8 9 10 11 12 13 14 15 16 17 18 19

000
FTUS41 KCLE 192100 AAA
TAFTOL
TAF AMD
KTOL 192108Z 1921/2018 VRB03KT P6SM BKN015 OVC025
      TEMPO 1921/1924 SCT015 OVC025
     FM200000 VRB03KT P6SM BKN030=

USA.gov is the U.S. government's official web portal to all federal, state and local government web resources and services.